Time,TemperatureF,DewpointF,PressureIn,WindDirection,WindDirectionDegrees,WindSpeedMPH,WindSpeedGustMPH,Humidity,HourlyPrecipIn,Conditions,Clouds,dailyrainin,SoftwareType,DateUTC
2013-02-07 00:06:00,34.4,23.0,30.36,SE,127,0.0,3.0,64,0.00,,,0.00,weatherlink.com 1.10,2013-02-07 05:06:00,
2013-02-07 00:21:00,34.0,23.0,30.36,SE,127,0.0,0.0,64,0.00,,,0.00,weatherlink.com 1.10,2013-02-07 05:21:00,
2013-02-07 00:36:00,33.3,23.0,30.38,SE,127,0.0,1.0,67,0.00,,,0.00,weatherlink.com 1.10,2013-02-07 05:36:00,
2013-02-07 00:51:00,32.6,24.0,30.38,SE,127,0.0,0.0,70,0.00,,,0.00,weatherlink.com 1.10,2013-02-07 05:51:00,
2013-02-07 01:06:00,32.0,24.0,30.39,SE,127,0.0,0.0,71,0.00,,,0.00,weatherlink.com 1.10,2013-02-07 06:06:00,
2013-02-07 01:21:00,31.6,24.0,30.39,SE,127,0.0,0.0,72,0.00,,,0.00,weatherlink.com 1.10,2013-02-07 06:21:00,
2013-02-07 01:36:00,31.2,23.0,30.40,SE,127,0.0,0.0,73,0.00,,,0.00,weatherlink.com 1.10,2013-02-07 06:36:00,
2013-02-07 01:51:00,30.8,23.0,30.40,SE,127,0.0,0.0,74,0.00,,,0.00,weatherlink.com 1.10,2013-02-07 06:51:00,
2013-02-07 02:06:00,30.5,23.0,30.41,SE,127,0.0,0.0,75,0.00,,,0.00,weatherlink.com 1.10,2013-02-07 07:06:00,
2013-02-07 02:21:00,30.2,24.0,30.41,SE,127,0.0,0.0,76,0.00,,,0.00,weatherlink.com 1.10,2013-02-07 07:21:00,
2013-02-07 02:36:00,29.9,23.0,30.41,SE,127,0.0,0.0,76,0.00,,,0.00,weatherlink.com 1.10,2013-02-07 07:36:00,
2013-02-07 02:51:00,29.8,23.0,30.41,SE,127,0.0,0.0,76,0.00,,,0.00,weatherlink.com 1.10,2013-02-07 07:51:00,
2013-02-07 03:06:00,29.7,23.0,30.41,SE,127,0.0,0.0,76,0.00,,,0.00,weatherlink.com 1.10,2013-02-07 08:06:00,
2013-02-07 03:21:00,29.5,23.0,30.39,SE,127,0.0,0.0,77,0.00,,,0.00,weatherlink.com 1.10,2013-02-07 08:21:00,
2013-02-07 03:36:00,29.5,23.0,30.38,SE,127,0.0,0.0,78,0.00,,,0.00,weatherlink.com 1.10,2013-02-07 08:36:00,
2013-02-07 03:51:00,29.4,23.0,30.38,SE,127,0.0,0.0,78,0.00,,,0.00,weatherlink.com 1.10,2013-02-07 08:51:00,
2013-02-07 04:06:00,29.5,23.0,30.38,SE,127,0.0,0.0,78,0.00,,,0.00,weatherlink.com 1.10,2013-02-07 09:06:00,
2013-02-07 04:21:00,29.5,23.0,30.38,SE,127,0.0,0.0,78,0.00,,,0.00,weatherlink.com 1.10,2013-02-07 09:21:00,
2013-02-07 04:36:00,29.6,24.0,30.39,SE,127,0.0,0.0,79,0.00,,,0.00,weatherlink.com 1.10,2013-02-07 09:36:00,
2013-02-07 04:51:00,29.6,24.0,30.40,SE,127,0.0,0.0,78,0.00,,,0.00,weatherlink.com 1.10,2013-02-07 09:51:00,
2013-02-07 05:06:00,29.6,24.0,30.40,SE,127,0.0,0.0,78,0.00,,,0.00,weatherlink.com 1.10,2013-02-07 10:06:00,
2013-02-07 05:21:00,29.6,24.0,30.40,SE,127,0.0,0.0,79,0.00,,,0.00,weatherlink.com 1.10,2013-02-07 10:21:00,
2013-02-07 05:36:00,29.6,24.0,30.41,SE,127,0.0,0.0,79,0.00,,,0.00,weatherlink.com 1.10,2013-02-07 10:36:00,
2013-02-07 05:51:00,29.6,24.0,30.41,SE,127,0.0,0.0,79,0.00,,,0.00,weatherlink.com 1.10,2013-02-07 10:51:00,
2013-02-07 06:07:00,29.4,24.0,30.42,SE,127,0.0,0.0,80,0.00,,,0.00,weatherlink.com 1.10,2013-02-07 11:07:00,
2013-02-07 06:22:00,29.4,24.0,30.42,SE,127,0.0,0.0,81,0.00,,,0.00,weatherlink.com 1.10,2013-02-07 11:22:00,
2013-02-07 06:37:00,29.5,24.0,30.43,SE,127,0.0,0.0,81,0.00,,,0.00,weatherlink.com 1.10,2013-02-07 11:37:00,
2013-02-07 06:52:00,29.6,25.0,30.43,SE,127,0.0,0.0,82,0.00,,,0.00,weatherlink.com 1.10,2013-02-07 11:52:00,
2013-02-07 07:07:00,29.8,25.0,30.43,SE,127,0.0,0.0,82,0.00,,,0.00,weatherlink.com 1.10,2013-02-07 12:07:00,
2013-02-07 07:22:00,30.1,25.0,30.43,SE,127,0.0,0.0,82,0.00,,,0.00,weatherlink.com 1.10,2013-02-07 12:22:00,
2013-02-07 07:37:00,30.6,25.0,30.44,East,92,0.0,1.0,81,0.00,,,0.00,weatherlink.com 1.10,2013-02-07 12:37:00,
2013-02-07 07:52:00,31.3,25.0,30.43,NE,40,0.0,3.0,76,0.00,,,0.00,weatherlink.com 1.10,2013-02-07 12:52:00,
2013-02-07 08:07:00,32.0,24.0,30.44,NE,44,2.0,4.0,73,0.00,,,0.00,weatherlink.com 1.10,2013-02-07 13:07:00,
2013-02-07 08:22:00,32.8,24.0,30.44,NE,41,0.0,5.0,71,0.00,,,0.00,weatherlink.com 1.10,2013-02-07 13:22:00,
2013-02-07 08:37:00,33.3,24.0,30.45,ESE,115,0.0,4.0,70,0.00,,,0.00,weatherlink.com 1.10,2013-02-07 13:37:00,
2013-02-07 08:52:00,33.7,25.0,30.45,NE,51,1.0,5.0,70,0.00,,,0.00,weatherlink.com 1.10,2013-02-07 13:52:00,
2013-02-07 09:07:00,34.1,25.0,30.46,NE,51,0.0,1.0,70,0.00,,,0.00,weatherlink.com 1.10,2013-02-07 14:07:00,
2013-02-07 09:22:00,34.4,26.0,30.45,NE,52,4.0,4.0,70,0.00,,,0.00,weatherlink.com 1.10,2013-02-07 14:22:00,
2013-02-07 09:37:00,34.8,26.0,30.45,ENE,63,1.0,3.0,69,0.00,,,0.00,weatherlink.com 1.10,2013-02-07 14:37:00,
2013-02-07 09:52:00,35.2,25.0,30.46,East,99,0.0,5.0,67,0.00,,,0.00,weatherlink.com 1.10,2013-02-07 14:52:00,
2013-02-07 10:07:00,35.6,25.0,30.45,ESE,105,0.0,1.0,66,0.00,,,0.00,weatherlink.com 1.10,2013-02-07 15:07:00,
2013-02-07 10:22:00,36.0,25.0,30.45,East,101,0.0,2.0,65,0.00,,,0.00,weatherlink.com 1.10,2013-02-07 15:22:00,
2013-02-07 10:37:00,36.7,25.0,30.45,East,92,1.0,2.0,64,0.00,,,0.00,weatherlink.com 1.10,2013-02-07 15:37:00,
2013-02-07 10:52:00,37.0,26.0,30.45,ESE,107,0.0,2.0,64,0.00,,,0.00,weatherlink.com 1.10,2013-02-07 15:52:00,
2013-02-07 11:07:00,37.8,27.0,30.44,South,172,0.0,2.0,64,0.00,,,0.00,weatherlink.com 1.10,2013-02-07 16:07:00,
2013-02-07 11:22:00,38.0,27.0,30.43,SE,130,4.0,4.0,65,0.00,,,0.00,weatherlink.com 1.10,2013-02-07 16:22:00,
2013-02-07 11:37:00,38.4,27.0,30.42,ESE,115,0.0,5.0,63,0.00,,,0.00,weatherlink.com 1.10,2013-02-07 16:37:00,
2013-02-07 11:52:00,39.1,27.0,30.41,ESE,118,0.0,4.0,62,0.00,,,0.00,weatherlink.com 1.10,2013-02-07 16:52:00,
2013-02-07 12:07:00,39.2,27.0,30.40,SE,128,1.0,4.0,62,0.00,,,0.00,weatherlink.com 1.10,2013-02-07 17:07:00,
2013-02-07 12:22:00,39.5,27.0,30.39,ENE,73,1.0,4.0,62,0.00,,,0.00,weatherlink.com 1.10,2013-02-07 17:22:00,
2013-02-07 12:37:00,39.9,28.0,30.39,ESE,117,1.0,3.0,62,0.00,,,0.00,weatherlink.com 1.10,2013-02-07 17:37:00,
2013-02-07 12:52:00,40.3,28.0,30.38,SE,146,0.0,4.0,61,0.00,,,0.00,weatherlink.com 1.10,2013-02-07 17:52:00,
2013-02-07 13:07:00,40.4,28.0,30.38,ESE,118,3.0,5.0,61,0.00,,,0.00,weatherlink.com 1.10,2013-02-07 18:07:00,
2013-02-07 13:22:00,40.1,27.0,30.37,SE,138,1.0,5.0,61,0.00,,,0.00,weatherlink.com 1.10,2013-02-07 18:22:00,
2013-02-07 13:37:00,40.5,28.0,30.37,ESE,119,3.0,4.0,61,0.00,,,0.00,weatherlink.com 1.10,2013-02-07 18:37:00,
2013-02-07 13:52:00,40.9,28.0,30.36,ENE,67,3.0,5.0,61,0.00,,,0.00,weatherlink.com 1.10,2013-02-07 18:52:00,
2013-02-07 14:07:00,41.2,29.0,30.35,ESE,116,2.0,4.0,61,0.00,,,0.00,weatherlink.com 1.10,2013-02-07 19:07:00,
2013-02-07 14:22:00,41.5,28.0,30.34,ESE,117,2.0,6.0,59,0.00,,,0.00,weatherlink.com 1.10,2013-02-07 19:22:00,
2013-02-07 14:37:00,41.7,28.0,30.34,SE,133,1.0,4.0,59,0.00,,,0.00,weatherlink.com 1.10,2013-02-07 19:37:00,
2013-02-07 14:52:00,41.4,27.0,30.33,ESE,105,0.0,7.0,58,0.00,,,0.00,weatherlink.com 1.10,2013-02-07 19:52:00,
2013-02-07 15:07:00,41.9,28.0,30.32,ESE,105,1.0,7.0,59,0.00,,,0.00,weatherlink.com 1.10,2013-02-07 20:07:00,
2013-02-07 15:23:00,41.8,28.0,30.31,SE,141,0.0,5.0,58,0.00,,,0.00,weatherlink.com 1.10,2013-02-07 20:23:00,
2013-02-07 15:38:00,41.7,28.0,30.31,East,83,0.0,5.0,58,0.00,,,0.00,weatherlink.com 1.10,2013-02-07 20:38:00,
2013-02-07 15:53:00,41.8,28.0,30.32,East,94,3.0,6.0,58,0.00,,,0.00,weatherlink.com 1.10,2013-02-07 20:53:00,
2013-02-07 16:08:00,41.8,27.0,30.31,East,79,3.0,6.0,57,0.00,,,0.00,weatherlink.com 1.10,2013-02-07 21:08:00,
2013-02-07 16:23:00,41.6,27.0,30.30,East,83,0.0,5.0,57,0.00,,,0.00,weatherlink.com 1.10,2013-02-07 21:23:00,
2013-02-07 16:38:00,41.5,27.0,30.30,East,94,0.0,5.0,56,0.00,,,0.00,weatherlink.com 1.10,2013-02-07 21:38:00,
2013-02-07 16:53:00,41.1,26.0,30.30,SE,141,0.0,8.0,56,0.00,,,0.00,weatherlink.com 1.10,2013-02-07 21:53:00,
2013-02-07 17:08:00,40.8,27.0,30.30,East,92,0.0,4.0,58,0.00,,,0.00,weatherlink.com 1.10,2013-02-07 22:08:00,
2013-02-07 17:23:00,40.6,27.0,30.31,SE,124,0.0,5.0,59,0.00,,,0.00,weatherlink.com 1.10,2013-02-07 22:23:00,
2013-02-07 17:38:00,40.4,27.0,30.32,ESE,105,2.0,4.0,59,0.00,,,0.00,weatherlink.com 1.10,2013-02-07 22:38:00,
2013-02-07 17:53:00,40.2,28.0,30.32,East,97,0.0,4.0,61,0.00,,,0.00,weatherlink.com 1.10,2013-02-07 22:53:00,
2013-02-07 18:08:00,40.0,27.0,30.32,ESE,120,0.0,4.0,61,0.00,,,0.00,weatherlink.com 1.10,2013-02-07 23:08:00,
2013-02-07 18:23:00,39.8,28.0,30.32,East,99,1.0,4.0,62,0.00,,,0.00,weatherlink.com 1.10,2013-02-07 23:23:00,
2013-02-07 18:38:00,39.7,27.0,30.33,ESE,104,0.0,2.0,62,0.00,,,0.00,weatherlink.com 1.10,2013-02-07 23:38:00,
2013-02-07 18:53:00,39.7,28.0,30.33,East,88,0.0,2.0,63,0.00,,,0.00,weatherlink.com 1.10,2013-02-07 23:53:00,
2013-02-07 19:08:00,39.7,28.0,30.32,ESE,123,2.0,4.0,63,0.00,,,0.00,weatherlink.com 1.10,2013-02-08 00:08:00,
2013-02-07 19:23:00,39.7,28.0,30.32,ESE,123,1.0,3.0,63,0.00,,,0.00,weatherlink.com 1.10,2013-02-08 00:23:00,
2013-02-07 19:38:00,39.6,29.0,30.30,SSE,147,2.0,3.0,65,0.00,,,0.00,weatherlink.com 1.10,2013-02-08 00:38:00,
2013-02-07 19:53:00,39.5,29.0,30.30,ESE,105,1.0,5.0,66,0.00,,,0.00,weatherlink.com 1.10,2013-02-08 00:53:00,
2013-02-07 20:08:00,39.4,29.0,30.30,East,97,0.0,3.0,66,0.00,,,0.00,weatherlink.com 1.10,2013-02-08 01:08:00,
2013-02-07 20:23:00,39.2,29.0,30.29,SE,128,0.0,4.0,68,0.00,,,0.00,weatherlink.com 1.10,2013-02-08 01:23:00,
2013-02-07 20:38:00,39.0,30.0,30.28,ENE,71,0.0,3.0,69,0.00,,,0.00,weatherlink.com 1.10,2013-02-08 01:38:00,
2013-02-07 20:53:00,38.8,30.0,30.28,ESE,121,2.0,5.0,70,0.00,,,0.00,weatherlink.com 1.10,2013-02-08 01:53:00,
2013-02-07 21:08:00,38.5,30.0,30.28,ESE,103,1.0,4.0,71,0.00,,,0.00,weatherlink.com 1.10,2013-02-08 02:08:00,
2013-02-07 21:23:00,38.3,30.0,30.27,NNE,25,0.0,6.0,72,0.00,,,0.00,weatherlink.com 1.10,2013-02-08 02:23:00,
2013-02-07 21:38:00,38.1,30.0,30.27,SE,131,0.0,3.0,73,0.00,,,0.00,weatherlink.com 1.10,2013-02-08 02:38:00,
2013-02-07 21:53:00,38.0,30.0,30.26,East,87,3.0,3.0,74,0.00,,,0.00,weatherlink.com 1.10,2013-02-08 02:53:00,
2013-02-07 22:08:00,37.9,30.0,30.26,East,79,2.0,7.0,74,0.00,,,0.00,weatherlink.com 1.10,2013-02-08 03:08:00,
2013-02-07 22:23:00,37.9,31.0,30.25,ESE,118,2.0,6.0,75,0.00,,,0.00,weatherlink.com 1.10,2013-02-08 03:23:00,
2013-02-07 22:38:00,37.9,31.0,30.24,ENE,65,2.0,5.0,75,0.00,,,0.00,weatherlink.com 1.10,2013-02-08 03:38:00,
2013-02-07 22:53:00,37.8,31.0,30.23,SE,126,1.0,6.0,76,0.00,,,0.00,weatherlink.com 1.10,2013-02-08 03:53:00,
2013-02-07 23:08:00,37.7,31.0,30.23,East,92,1.0,6.0,76,0.00,,,0.00,weatherlink.com 1.10,2013-02-08 04:08:00,
2013-02-07 23:23:00,37.6,30.0,30.22,NE,38,1.0,8.0,75,0.00,,,0.00,weatherlink.com 1.10,2013-02-08 04:23:00,
2013-02-07 23:38:00,37.4,30.0,30.22,ENE,64,3.0,5.0,74,0.00,,,0.00,weatherlink.com 1.10,2013-02-08 04:38:00,
2013-02-07 23:53:00,37.2,30.0,30.21,ENE,71,1.0,7.0,74,0.00,,,0.00,weatherlink.com 1.10,2013-02-08 04:53:00,